sensor_id;sensor_type;location;lat;lon;timestamp;P1;durP1;ratioP1;P2;durP2;ratioP2
6947;SDS011;3513;47.664;9.162;2023-03-07T00:00:47;25.17;;;13.83;;
6947;SDS011;3513;47.664;9.162;2023-03-07T00:03:13;23.80;;;12.63;;
6947;SDS011;3513;47.664;9.162;2023-03-07T00:05:40;20.73;;;11.20;;
6947;SDS011;3513;47.664;9.162;2023-03-07T00:08:06;24.10;;;12.13;;
6947;SDS011;3513;47.664;9.162;2023-03-07T00:10:32;24.70;;;12.63;;
6947;SDS011;3513;47.664;9.162;2023-03-07T00:12:58;22.43;;;12.93;;
6947;SDS011;3513;47.664;9.162;2023-03-07T00:15:23;22.93;;;13.20;;
6947;SDS011;3513;47.664;9.162;2023-03-07T00:17:49;26.57;;;14.47;;
6947;SDS011;3513;47.664;9.162;2023-03-07T00:20:15;30.33;;;13.17;;
6947;SDS011;3513;47.664;9.162;2023-03-07T00:22:42;23.77;;;12.80;;
6947;SDS011;3513;47.664;9.162;2023-03-07T00:25:08;29.33;;;13.43;;
6947;SDS011;3513;47.664;9.162;2023-03-07T00:27:34;24.40;;;13.33;;
6947;SDS011;3513;47.664;9.162;2023-03-07T00:30:00;27.87;;;12.73;;
6947;SDS011;3513;47.664;9.162;2023-03-07T00:32:28;25.27;;;13.53;;
6947;SDS011;3513;47.664;9.162;2023-03-07T00:34:54;26.73;;;13.90;;
6947;SDS011;3513;47.664;9.162;2023-03-07T00:37:21;19.30;;;11.73;;
6947;SDS011;3513;47.664;9.162;2023-03-07T00:39:47;22.73;;;12.37;;
6947;SDS011;3513;47.664;9.162;2023-03-07T00:42:12;27.70;;;12.97;;
6947;SDS011;3513;47.664;9.162;2023-03-07T00:44:38;21.33;;;12.37;;
6947;SDS011;3513;47.664;9.162;2023-03-07T00:47:04;31.00;;;12.80;;
6947;SDS011;3513;47.664;9.162;2023-03-07T00:49:29;22.20;;;11.57;;
6947;SDS011;3513;47.664;9.162;2023-03-07T00:51:55;27.10;;;13.30;;
6947;SDS011;3513;47.664;9.162;2023-03-07T00:54:21;23.57;;;13.00;;
6947;SDS011;3513;47.664;9.162;2023-03-07T00:56:46;23.13;;;12.13;;
6947;SDS011;3513;47.664;9.162;2023-03-07T00:59:12;21.47;;;11.90;;
6947;SDS011;3513;47.664;9.162;2023-03-07T01:01:37;28.40;;;12.90;;
6947;SDS011;3513;47.664;9.162;2023-03-07T01:04:05;25.83;;;13.00;;
6947;SDS011;3513;47.664;9.162;2023-03-07T01:06:31;25.70;;;13.57;;
6947;SDS011;3513;47.664;9.162;2023-03-07T01:08:58;39.07;;;14.17;;
6947;SDS011;3513;47.664;9.162;2023-03-07T01:11:26;24.10;;;12.63;;
6947;SDS011;3513;47.664;9.162;2023-03-07T01:13:56;20.87;;;12.43;;
6947;SDS011;3513;47.664;9.162;2023-03-07T01:16:24;26.53;;;14.07;;
6947;SDS011;3513;47.664;9.162;2023-03-07T01:18:54;30.20;;;13.33;;
6947;SDS011;3513;47.664;9.162;2023-03-07T01:21:25;24.57;;;13.10;;
6947;SDS011;3513;47.664;9.162;2023-03-07T01:23:55;28.77;;;12.97;;
6947;SDS011;3513;47.664;9.162;2023-03-07T01:26:22;28.73;;;14.47;;
6947;SDS011;3513;47.664;9.162;2023-03-07T01:28:50;26.67;;;13.87;;
6947;SDS011;3513;47.664;9.162;2023-03-07T01:31:18;22.87;;;12.00;;
6947;SDS011;3513;47.664;9.162;2023-03-07T01:33:46;28.17;;;13.67;;
6947;SDS011;3513;47.664;9.162;2023-03-07T01:36:16;23.33;;;13.10;;
6947;SDS011;3513;47.664;9.162;2023-03-07T01:38:44;28.50;;;13.43;;
6947;SDS011;3513;47.664;9.162;2023-03-07T01:41:13;25.87;;;12.40;;
6947;SDS011;3513;47.664;9.162;2023-03-07T01:43:40;25.30;;;12.97;;
6947;SDS011;3513;47.664;9.162;2023-03-07T01:48:41;25.07;;;12.90;;
6947;SDS011;3513;47.664;9.162;2023-03-07T01:51:11;28.43;;;13.60;;
6947;SDS011;3513;47.664;9.162;2023-03-07T01:53:37;23.07;;;13.77;;
6947;SDS011;3513;47.664;9.162;2023-03-07T01:56:03;27.30;;;14.20;;
6947;SDS011;3513;47.664;9.162;2023-03-07T01:58:31;26.53;;;12.10;;
6947;SDS011;3513;47.664;9.162;2023-03-07T02:00:57;21.63;;;11.83;;
6947;SDS011;3513;47.664;9.162;2023-03-07T02:05:55;27.27;;;12.60;;
6947;SDS011;3513;47.664;9.162;2023-03-07T02:08:24;20.60;;;13.17;;
6947;SDS011;3513;47.664;9.162;2023-03-07T02:10:52;23.70;;;12.53;;
6947;SDS011;3513;47.664;9.162;2023-03-07T02:13:18;29.33;;;13.80;;
6947;SDS011;3513;47.664;9.162;2023-03-07T02:15:44;23.00;;;12.27;;
6947;SDS011;3513;47.664;9.162;2023-03-07T02:18:11;23.00;;;12.83;;
6947;SDS011;3513;47.664;9.162;2023-03-07T02:23:47;22.87;;;12.70;;
6947;SDS011;3513;47.664;9.162;2023-03-07T02:26:42;21.57;;;11.70;;
6947;SDS011;3513;47.664;9.162;2023-03-07T02:29:08;22.07;;;11.47;;
6947;SDS011;3513;47.664;9.162;2023-03-07T02:31:35;26.27;;;13.43;;
6947;SDS011;3513;47.664;9.162;2023-03-07T02:34:01;25.83;;;14.33;;
6947;SDS011;3513;47.664;9.162;2023-03-07T02:36:33;18.43;;;11.70;;
6947;SDS011;3513;47.664;9.162;2023-03-07T02:39:00;20.10;;;11.70;;
6947;SDS011;3513;47.664;9.162;2023-03-07T02:41:31;24.73;;;11.60;;
6947;SDS011;3513;47.664;9.162;2023-03-07T02:43:57;23.10;;;12.57;;
6947;SDS011;3513;47.664;9.162;2023-03-07T02:46:24;24.77;;;13.30;;
6947;SDS011;3513;47.664;9.162;2023-03-07T02:48:49;27.50;;;12.50;;
6947;SDS011;3513;47.664;9.162;2023-03-07T02:51:15;23.87;;;12.90;;
6947;SDS011;3513;47.664;9.162;2023-03-07T02:53:40;28.80;;;12.63;;
6947;SDS011;3513;47.664;9.162;2023-03-07T02:56:06;22.93;;;12.13;;
6947;SDS011;3513;47.664;9.162;2023-03-07T02:58:32;23.10;;;12.53;;
6947;SDS011;3513;47.664;9.162;2023-03-07T03:00:58;24.77;;;10.93;;
6947;SDS011;3513;47.664;9.162;2023-03-07T03:03:24;24.93;;;12.07;;
6947;SDS011;3513;47.664;9.162;2023-03-07T03:05:50;24.70;;;12.53;;
6947;SDS011;3513;47.664;9.162;2023-03-07T03:08:15;21.50;;;12.17;;
6947;SDS011;3513;47.664;9.162;2023-03-07T03:10:41;24.83;;;10.73;;
6947;SDS011;3513;47.664;9.162;2023-03-07T03:13:06;18.83;;;11.47;;
6947;SDS011;3513;47.664;9.162;2023-03-07T03:15:32;21.73;;;11.40;;
6947;SDS011;3513;47.664;9.162;2023-03-07T03:17:58;24.90;;;11.37;;
6947;SDS011;3513;47.664;9.162;2023-03-07T03:20:23;28.00;;;12.67;;
6947;SDS011;3513;47.664;9.162;2023-03-07T03:22:50;27.13;;;12.17;;
6947;SDS011;3513;47.664;9.162;2023-03-07T03:25:16;24.80;;;12.20;;
6947;SDS011;3513;47.664;9.162;2023-03-07T03:27:42;22.97;;;11.27;;
6947;SDS011;3513;47.664;9.162;2023-03-07T03:30:09;23.27;;;11.83;;
6947;SDS011;3513;47.664;9.162;2023-03-07T03:32:37;28.30;;;12.40;;
6947;SDS011;3513;47.664;9.162;2023-03-07T03:35:04;25.80;;;14.10;;
6947;SDS011;3513;47.664;9.162;2023-03-07T03:37:30;19.63;;;11.57;;
6947;SDS011;3513;47.664;9.162;2023-03-07T03:39:56;21.57;;;12.60;;
6947;SDS011;3513;47.664;9.162;2023-03-07T03:42:22;29.77;;;14.47;;
6947;SDS011;3513;47.664;9.162;2023-03-07T03:44:48;27.20;;;13.80;;
6947;SDS011;3513;47.664;9.162;2023-03-07T03:47:13;19.47;;;12.03;;
6947;SDS011;3513;47.664;9.162;2023-03-07T03:49:39;28.40;;;13.20;;
6947;SDS011;3513;47.664;9.162;2023-03-07T03:52:05;21.63;;;12.23;;
6947;SDS011;3513;47.664;9.162;2023-03-07T03:54:30;24.73;;;12.60;;
6947;SDS011;3513;47.664;9.162;2023-03-07T03:56:56;22.73;;;13.00;;
6947;SDS011;3513;47.664;9.162;2023-03-07T03:59:22;21.90;;;12.10;;
6947;SDS011;3513;47.664;9.162;2023-03-07T04:01:47;20.53;;;11.50;;
6947;SDS011;3513;47.664;9.162;2023-03-07T04:04:13;24.33;;;12.53;;
6947;SDS011;3513;47.664;9.162;2023-03-07T04:06:39;24.67;;;12.60;;
6947;SDS011;3513;47.664;9.162;2023-03-07T04:09:06;22.90;;;12.00;;
6947;SDS011;3513;47.664;9.162;2023-03-07T04:11:33;21.33;;;12.60;;
6947;SDS011;3513;47.664;9.162;2023-03-07T04:13:59;26.17;;;14.27;;
6947;SDS011;3513;47.664;9.162;2023-03-07T04:16:25;22.13;;;12.50;;
6947;SDS011;3513;47.664;9.162;2023-03-07T04:18:51;29.83;;;12.20;;
6947;SDS011;3513;47.664;9.162;2023-03-07T04:21:17;25.47;;;12.27;;
6947;SDS011;3513;47.664;9.162;2023-03-07T04:23:43;20.07;;;10.77;;
6947;SDS011;3513;47.664;9.162;2023-03-07T04:26:09;20.77;;;11.77;;
6947;SDS011;3513;47.664;9.162;2023-03-07T04:28:36;26.03;;;11.70;;
6947;SDS011;3513;47.664;9.162;2023-03-07T04:31:10;23.47;;;11.27;;
6947;SDS011;3513;47.664;9.162;2023-03-07T04:33:40;23.27;;;12.50;;
6947;SDS011;3513;47.664;9.162;2023-03-07T04:36:07;24.87;;;12.67;;
6947;SDS011;3513;47.664;9.162;2023-03-07T04:38:33;24.87;;;13.67;;
6947;SDS011;3513;47.664;9.162;2023-03-07T04:40:59;32.50;;;12.87;;
6947;SDS011;3513;47.664;9.162;2023-03-07T04:43:25;21.60;;;10.87;;
6947;SDS011;3513;47.664;9.162;2023-03-07T04:45:51;23.63;;;11.33;;
6947;SDS011;3513;47.664;9.162;2023-03-07T04:48:17;31.00;;;11.77;;
6947;SDS011;3513;47.664;9.162;2023-03-07T04:50:43;21.03;;;12.00;;
6947;SDS011;3513;47.664;9.162;2023-03-07T04:53:09;22.67;;;11.47;;
6947;SDS011;3513;47.664;9.162;2023-03-07T04:55:34;24.23;;;11.53;;
6947;SDS011;3513;47.664;9.162;2023-03-07T04:58:00;25.50;;;12.53;;
6947;SDS011;3513;47.664;9.162;2023-03-07T05:00:25;23.20;;;11.90;;
6947;SDS011;3513;47.664;9.162;2023-03-07T05:02:52;24.93;;;11.43;;
6947;SDS011;3513;47.664;9.162;2023-03-07T05:05:21;18.50;;;11.33;;
6947;SDS011;3513;47.664;9.162;2023-03-07T05:07:46;23.47;;;11.50;;
6947;SDS011;3513;47.664;9.162;2023-03-07T05:10:12;18.60;;;10.37;;
6947;SDS011;3513;47.664;9.162;2023-03-07T05:12:38;22.43;;;11.10;;
6947;SDS011;3513;47.664;9.162;2023-03-07T05:15:04;24.37;;;11.90;;
6947;SDS011;3513;47.664;9.162;2023-03-07T05:17:30;17.97;;;10.90;;
6947;SDS011;3513;47.664;9.162;2023-03-07T05:19:55;23.53;;;11.83;;
6947;SDS011;3513;47.664;9.162;2023-03-07T05:22:21;18.87;;;11.10;;
6947;SDS011;3513;47.664;9.162;2023-03-07T05:24:47;23.23;;;11.10;;
6947;SDS011;3513;47.664;9.162;2023-03-07T05:27:13;22.07;;;12.27;;
6947;SDS011;3513;47.664;9.162;2023-03-07T05:29:40;22.40;;;11.60;;
6947;SDS011;3513;47.664;9.162;2023-03-07T05:32:06;21.57;;;11.20;;
6947;SDS011;3513;47.664;9.162;2023-03-07T05:34:31;22.80;;;12.97;;
6947;SDS011;3513;47.664;9.162;2023-03-07T05:36:57;20.30;;;11.40;;
6947;SDS011;3513;47.664;9.162;2023-03-07T05:39:23;29.43;;;11.40;;
6947;SDS011;3513;47.664;9.162;2023-03-07T05:41:49;20.63;;;10.57;;
6947;SDS011;3513;47.664;9.162;2023-03-07T05:44:15;20.30;;;11.07;;
6947;SDS011;3513;47.664;9.162;2023-03-07T05:46:40;23.50;;;11.43;;
6947;SDS011;3513;47.664;9.162;2023-03-07T05:49:07;20.43;;;10.90;;
6947;SDS011;3513;47.664;9.162;2023-03-07T05:51:32;25.00;;;10.93;;
6947;SDS011;3513;47.664;9.162;2023-03-07T05:53:58;18.50;;;10.67;;
6947;SDS011;3513;47.664;9.162;2023-03-07T05:56:24;19.87;;;11.07;;
6947;SDS011;3513;47.664;9.162;2023-03-07T05:58:50;25.93;;;10.57;;
6947;SDS011;3513;47.664;9.162;2023-03-07T06:01:15;16.83;;;10.83;;
6947;SDS011;3513;47.664;9.162;2023-03-07T06:03:41;19.53;;;10.63;;
6947;SDS011;3513;47.664;9.162;2023-03-07T06:06:08;25.23;;;11.40;;
6947;SDS011;3513;47.664;9.162;2023-03-07T06:08:36;20.37;;;11.63;;
6947;SDS011;3513;47.664;9.162;2023-03-07T06:11:01;21.90;;;11.67;;
6947;SDS011;3513;47.664;9.162;2023-03-07T06:13:27;20.93;;;11.13;;
6947;SDS011;3513;47.664;9.162;2023-03-07T06:15:55;23.03;;;12.07;;
6947;SDS011;3513;47.664;9.162;2023-03-07T06:18:21;20.20;;;11.10;;
6947;SDS011;3513;47.664;9.162;2023-03-07T06:20:58;25.67;;;10.93;;
6947;SDS011;3513;47.664;9.162;2023-03-07T06:23:26;25.67;;;11.80;;
6947;SDS011;3513;47.664;9.162;2023-03-07T06:25:53;21.33;;;10.63;;
6947;SDS011;3513;47.664;9.162;2023-03-07T06:28:19;24.60;;;11.90;;
6947;SDS011;3513;47.664;9.162;2023-03-07T06:30:44;18.97;;;11.20;;
6947;SDS011;3513;47.664;9.162;2023-03-07T06:33:11;27.30;;;10.87;;
6947;SDS011;3513;47.664;9.162;2023-03-07T06:35:40;26.90;;;12.50;;
6947;SDS011;3513;47.664;9.162;2023-03-07T06:38:07;21.50;;;11.80;;
6947;SDS011;3513;47.664;9.162;2023-03-07T06:40:34;24.27;;;10.93;;
6947;SDS011;3513;47.664;9.162;2023-03-07T06:42:59;22.67;;;11.63;;
6947;SDS011;3513;47.664;9.162;2023-03-07T06:45:25;19.63;;;11.03;;
6947;SDS011;3513;47.664;9.162;2023-03-07T06:47:50;22.57;;;12.00;;
6947;SDS011;3513;47.664;9.162;2023-03-07T06:50:16;24.40;;;11.70;;
6947;SDS011;3513;47.664;9.162;2023-03-07T06:52:42;19.87;;;11.67;;
6947;SDS011;3513;47.664;9.162;2023-03-07T06:55:08;33.90;;;13.03;;
6947;SDS011;3513;47.664;9.162;2023-03-07T06:57:34;28.10;;;11.40;;
6947;SDS011;3513;47.664;9.162;2023-03-07T07:00:03;18.90;;;10.13;;
6947;SDS011;3513;47.664;9.162;2023-03-07T07:02:29;19.87;;;11.33;;
6947;SDS011;3513;47.664;9.162;2023-03-07T07:04:55;22.23;;;11.80;;
6947;SDS011;3513;47.664;9.162;2023-03-07T07:07:22;20.77;;;11.23;;
6947;SDS011;3513;47.664;9.162;2023-03-07T07:09:49;25.00;;;12.07;;
6947;SDS011;3513;47.664;9.162;2023-03-07T07:12:15;24.47;;;12.10;;
6947;SDS011;3513;47.664;9.162;2023-03-07T07:14:41;24.73;;;11.10;;
6947;SDS011;3513;47.664;9.162;2023-03-07T07:17:06;23.57;;;10.67;;
6947;SDS011;3513;47.664;9.162;2023-03-07T07:19:32;23.13;;;10.93;;
6947;SDS011;3513;47.664;9.162;2023-03-07T07:21:58;20.90;;;10.67;;
6947;SDS011;3513;47.664;9.162;2023-03-07T07:24:23;19.00;;;10.27;;
6947;SDS011;3513;47.664;9.162;2023-03-07T07:26:49;24.63;;;12.00;;
6947;SDS011;3513;47.664;9.162;2023-03-07T07:29:14;18.53;;;10.47;;
6947;SDS011;3513;47.664;9.162;2023-03-07T07:31:40;20.33;;;11.53;;
6947;SDS011;3513;47.664;9.162;2023-03-07T07:34:06;17.83;;;10.27;;
6947;SDS011;3513;47.664;9.162;2023-03-07T07:36:32;21.83;;;11.37;;
6947;SDS011;3513;47.664;9.162;2023-03-07T07:38:58;23.27;;;11.17;;
6947;SDS011;3513;47.664;9.162;2023-03-07T07:41:29;20.90;;;10.50;;
6947;SDS011;3513;47.664;9.162;2023-03-07T07:43:57;39.30;;;11.57;;
6947;SDS011;3513;47.664;9.162;2023-03-07T07:46:22;23.03;;;11.70;;
6947;SDS011;3513;47.664;9.162;2023-03-07T07:48:48;37.40;;;11.00;;
6947;SDS011;3513;47.664;9.162;2023-03-07T07:51:14;23.03;;;10.57;;
6947;SDS011;3513;47.664;9.162;2023-03-07T07:53:40;22.40;;;10.77;;
6947;SDS011;3513;47.664;9.162;2023-03-07T07:56:06;26.50;;;10.50;;
6947;SDS011;3513;47.664;9.162;2023-03-07T07:58:32;18.83;;;9.67;;
6947;SDS011;3513;47.664;9.162;2023-03-07T08:00:57;19.40;;;10.40;;
6947;SDS011;3513;47.664;9.162;2023-03-07T08:03:23;28.63;;;11.63;;
6947;SDS011;3513;47.664;9.162;2023-03-07T08:05:49;19.53;;;9.90;;
6947;SDS011;3513;47.664;9.162;2023-03-07T08:08:15;18.40;;;9.67;;
6947;SDS011;3513;47.664;9.162;2023-03-07T08:10:47;15.47;;;9.83;;
6947;SDS011;3513;47.664;9.162;2023-03-07T08:13:14;23.23;;;9.73;;
6947;SDS011;3513;47.664;9.162;2023-03-07T08:15:41;22.37;;;9.50;;
6947;SDS011;3513;47.664;9.162;2023-03-07T08:18:07;14.40;;;9.20;;
6947;SDS011;3513;47.664;9.162;2023-03-07T08:20:35;17.67;;;8.37;;
6947;SDS011;3513;47.664;9.162;2023-03-07T08:23:02;15.07;;;8.90;;
6947;SDS011;3513;47.664;9.162;2023-03-07T08:25:27;17.43;;;9.17;;
6947;SDS011;3513;47.664;9.162;2023-03-07T08:27:53;20.23;;;9.70;;
6947;SDS011;3513;47.664;9.162;2023-03-07T08:30:21;16.13;;;8.80;;
6947;SDS011;3513;47.664;9.162;2023-03-07T08:32:48;16.13;;;8.10;;
6947;SDS011;3513;47.664;9.162;2023-03-07T08:35:15;17.67;;;8.70;;
6947;SDS011;3513;47.664;9.162;2023-03-07T08:37:40;18.00;;;8.73;;
6947;SDS011;3513;47.664;9.162;2023-03-07T08:40:06;17.47;;;9.20;;
6947;SDS011;3513;47.664;9.162;2023-03-07T08:42:32;26.03;;;10.50;;
6947;SDS011;3513;47.664;9.162;2023-03-07T08:44:58;12.90;;;8.00;;
6947;SDS011;3513;47.664;9.162;2023-03-07T08:47:23;19.13;;;9.80;;
6947;SDS011;3513;47.664;9.162;2023-03-07T08:49:49;21.13;;;8.93;;
6947;SDS011;3513;47.664;9.162;2023-03-07T08:52:15;13.77;;;8.50;;
6947;SDS011;3513;47.664;9.162;2023-03-07T08:54:41;17.50;;;8.00;;
6947;SDS011;3513;47.664;9.162;2023-03-07T08:57:06;15.20;;;9.30;;
6947;SDS011;3513;47.664;9.162;2023-03-07T08:59:32;14.00;;;8.33;;
6947;SDS011;3513;47.664;9.162;2023-03-07T09:01:57;18.93;;;11.00;;
6947;SDS011;3513;47.664;9.162;2023-03-07T09:04:23;23.43;;;9.70;;
6947;SDS011;3513;47.664;9.162;2023-03-07T09:06:49;19.37;;;9.37;;
6947;SDS011;3513;47.664;9.162;2023-03-07T09:09:15;17.47;;;9.27;;
6947;SDS011;3513;47.664;9.162;2023-03-07T09:11:40;17.87;;;9.77;;
6947;SDS011;3513;47.664;9.162;2023-03-07T09:14:06;34.67;;;9.00;;
6947;SDS011;3513;47.664;9.162;2023-03-07T09:16:31;18.50;;;9.57;;
6947;SDS011;3513;47.664;9.162;2023-03-07T09:18:57;16.30;;;8.83;;
6947;SDS011;3513;47.664;9.162;2023-03-07T09:21:23;17.23;;;8.63;;
6947;SDS011;3513;47.664;9.162;2023-03-07T09:23:48;18.03;;;8.97;;
6947;SDS011;3513;47.664;9.162;2023-03-07T09:26:14;18.23;;;10.03;;
6947;SDS011;3513;47.664;9.162;2023-03-07T09:28:40;15.20;;;9.00;;
6947;SDS011;3513;47.664;9.162;2023-03-07T09:31:09;21.97;;;9.23;;
6947;SDS011;3513;47.664;9.162;2023-03-07T09:33:36;20.83;;;10.90;;
6947;SDS011;3513;47.664;9.162;2023-03-07T09:36:05;27.00;;;11.00;;
6947;SDS011;3513;47.664;9.162;2023-03-07T09:38:31;19.90;;;9.37;;
6947;SDS011;3513;47.664;9.162;2023-03-07T09:41:13;21.10;;;9.80;;
6947;SDS011;3513;47.664;9.162;2023-03-07T09:44:02;21.63;;;9.80;;
6947;SDS011;3513;47.664;9.162;2023-03-07T09:49:24;22.33;;;9.43;;
6947;SDS011;3513;47.664;9.162;2023-03-07T09:52:06;13.43;;;6.00;;
6947;SDS011;3513;47.664;9.162;2023-03-07T09:54:37;22.43;;;9.00;;
6947;SDS011;3513;47.664;9.162;2023-03-07T09:57:16;31.20;;;10.90;;
6947;SDS011;3513;47.664;9.162;2023-03-07T10:00:29;17.37;;;9.00;;
6947;SDS011;3513;47.664;9.162;2023-03-07T10:02:44;18.73;;;8.63;;
6947;SDS011;3513;47.664;9.162;2023-03-07T10:05:25;23.53;;;10.30;;
6947;SDS011;3513;47.664;9.162;2023-03-07T10:07:56;23.87;;;10.60;;
6947;SDS011;3513;47.664;9.162;2023-03-07T10:10:47;25.27;;;10.40;;
6947;SDS011;3513;47.664;9.162;2023-03-07T10:16:13;17.67;;;8.80;;
6947;SDS011;3513;47.664;9.162;2023-03-07T10:21:27;23.07;;;11.90;;
6947;SDS011;3513;47.664;9.162;2023-03-07T10:27:10;17.20;;;9.83;;
6947;SDS011;3513;47.664;9.162;2023-03-07T10:29:47;23.43;;;10.50;;
6947;SDS011;3513;47.664;9.162;2023-03-07T10:34:56;24.73;;;11.17;;
6947;SDS011;3513;47.664;9.162;2023-03-07T10:37:35;19.17;;;10.77;;
6947;SDS011;3513;47.664;9.162;2023-03-07T10:40:14;24.23;;;11.40;;
6947;SDS011;3513;47.664;9.162;2023-03-07T10:42:49;20.90;;;10.00;;
6947;SDS011;3513;47.664;9.162;2023-03-07T10:45:15;20.27;;;10.83;;
6947;SDS011;3513;47.664;9.162;2023-03-07T10:47:41;23.37;;;10.23;;
6947;SDS011;3513;47.664;9.162;2023-03-07T10:52:56;31.97;;;13.03;;
6947;SDS011;3513;47.664;9.162;2023-03-07T10:55:42;22.10;;;11.00;;
6947;SDS011;3513;47.664;9.162;2023-03-07T11:00:37;29.87;;;11.20;;
6947;SDS011;3513;47.664;9.162;2023-03-07T11:03:03;18.63;;;10.23;;
6947;SDS011;3513;47.664;9.162;2023-03-07T11:05:45;27.07;;;10.80;;
6947;SDS011;3513;47.664;9.162;2023-03-07T11:11:00;19.10;;;9.50;;
6947;SDS011;3513;47.664;9.162;2023-03-07T11:13:28;22.13;;;10.77;;
6947;SDS011;3513;47.664;9.162;2023-03-07T11:18:53;24.97;;;11.30;;
6947;SDS011;3513;47.664;9.162;2023-03-07T11:24:03;25.73;;;11.33;;
6947;SDS011;3513;47.664;9.162;2023-03-07T11:26:50;22.23;;;11.37;;
6947;SDS011;3513;47.664;9.162;2023-03-07T11:29:18;20.27;;;11.13;;
6947;SDS011;3513;47.664;9.162;2023-03-07T11:37:40;17.90;;;10.47;;
6947;SDS011;3513;47.664;9.162;2023-03-07T11:48:01;32.00;;;11.77;;
6947;SDS011;3513;47.664;9.162;2023-03-07T11:50:54;23.33;;;10.47;;
6947;SDS011;3513;47.664;9.162;2023-03-07T11:53:39;21.77;;;13.20;;
6947;SDS011;3513;47.664;9.162;2023-03-07T12:01:53;21.00;;;11.50;;
6947;SDS011;3513;47.664;9.162;2023-03-07T12:07:52;17.73;;;10.40;;
6947;SDS011;3513;47.664;9.162;2023-03-07T12:10:18;26.27;;;11.87;;
6947;SDS011;3513;47.664;9.162;2023-03-07T12:19:08;19.33;;;10.67;;
6947;SDS011;3513;47.664;9.162;2023-03-07T12:22:13;25.37;;;9.90;;
6947;SDS011;3513;47.664;9.162;2023-03-07T12:27:31;18.70;;;10.40;;
6947;SDS011;3513;47.664;9.162;2023-03-07T12:30:21;18.50;;;10.30;;
6947;SDS011;3513;47.664;9.162;2023-03-07T12:32:54;23.93;;;10.40;;
6947;SDS011;3513;47.664;9.162;2023-03-07T12:38:39;22.00;;;13.13;;
6947;SDS011;3513;47.664;9.162;2023-03-07T12:40:50;20.87;;;9.73;;
6947;SDS011;3513;47.664;9.162;2023-03-07T12:43:41;18.83;;;9.83;;
6947;SDS011;3513;47.664;9.162;2023-03-07T12:49:21;20.50;;;10.47;;
6947;SDS011;3513;47.664;9.162;2023-03-07T12:52:13;21.93;;;11.27;;
6947;SDS011;3513;47.664;9.162;2023-03-07T12:58:11;23.13;;;11.40;;
6947;SDS011;3513;47.664;9.162;2023-03-07T13:00:57;27.67;;;10.87;;
6947;SDS011;3513;47.664;9.162;2023-03-07T13:05:53;17.80;;;10.57;;
6947;SDS011;3513;47.664;9.162;2023-03-07T13:08:21;21.30;;;11.43;;
6947;SDS011;3513;47.664;9.162;2023-03-07T13:10:48;24.93;;;10.70;;
6947;SDS011;3513;47.664;9.162;2023-03-07T13:16:05;21.07;;;9.60;;
6947;SDS011;3513;47.664;9.162;2023-03-07T13:18:31;24.07;;;12.20;;
6947;SDS011;3513;47.664;9.162;2023-03-07T13:21:07;20.23;;;11.20;;
6947;SDS011;3513;47.664;9.162;2023-03-07T13:23:35;29.77;;;12.30;;
6947;SDS011;3513;47.664;9.162;2023-03-07T13:26:01;22.70;;;11.07;;
6947;SDS011;3513;47.664;9.162;2023-03-07T13:28:34;22.17;;;12.33;;
6947;SDS011;3513;47.664;9.162;2023-03-07T13:33:45;19.93;;;11.40;;
6947;SDS011;3513;47.664;9.162;2023-03-07T13:38:58;32.17;;;14.43;;
6947;SDS011;3513;47.664;9.162;2023-03-07T13:44:28;21.83;;;10.97;;
6947;SDS011;3513;47.664;9.162;2023-03-07T13:52:59;22.97;;;11.40;;
6947;SDS011;3513;47.664;9.162;2023-03-07T13:55:39;21.80;;;11.63;;
6947;SDS011;3513;47.664;9.162;2023-03-07T14:00:59;20.70;;;11.60;;
6947;SDS011;3513;47.664;9.162;2023-03-07T14:06:02;26.40;;;10.77;;
6947;SDS011;3513;47.664;9.162;2023-03-07T14:08:54;22.10;;;10.77;;
6947;SDS011;3513;47.664;9.162;2023-03-07T14:14:13;23.47;;;10.83;;
6947;SDS011;3513;47.664;9.162;2023-03-07T14:22:00;24.47;;;11.17;;
6947;SDS011;3513;47.664;9.162;2023-03-07T14:24:44;24.83;;;11.80;;
6947;SDS011;3513;47.664;9.162;2023-03-07T14:27:14;25.63;;;14.13;;
6947;SDS011;3513;47.664;9.162;2023-03-07T14:29:51;33.13;;;13.73;;
6947;SDS011;3513;47.664;9.162;2023-03-07T14:32:28;24.40;;;12.30;;
6947;SDS011;3513;47.664;9.162;2023-03-07T14:34:55;24.83;;;12.70;;
6947;SDS011;3513;47.664;9.162;2023-03-07T14:37:30;23.33;;;11.97;;
6947;SDS011;3513;47.664;9.162;2023-03-07T14:42:41;26.67;;;12.90;;
6947;SDS011;3513;47.664;9.162;2023-03-07T14:50:13;23.27;;;9.50;;
6947;SDS011;3513;47.664;9.162;2023-03-07T14:52:42;32.53;;;11.27;;
6947;SDS011;3513;47.664;9.162;2023-03-07T14:55:16;30.57;;;15.30;;
6947;SDS011;3513;47.664;9.162;2023-03-07T14:57:45;25.30;;;13.00;;
6947;SDS011;3513;47.664;9.162;2023-03-07T15:02:48;22.27;;;12.57;;
6947;SDS011;3513;47.664;9.162;2023-03-07T15:05:20;18.80;;;11.83;;
6947;SDS011;3513;47.664;9.162;2023-03-07T15:07:49;23.53;;;11.93;;
6947;SDS011;3513;47.664;9.162;2023-03-07T15:10:19;24.90;;;13.00;;
6947;SDS011;3513;47.664;9.162;2023-03-07T15:12:49;26.40;;;13.43;;
6947;SDS011;3513;47.664;9.162;2023-03-07T15:18:26;23.87;;;12.13;;
6947;SDS011;3513;47.664;9.162;2023-03-07T15:20:56;23.60;;;13.10;;
6947;SDS011;3513;47.664;9.162;2023-03-07T15:23:24;27.53;;;12.37;;
6947;SDS011;3513;47.664;9.162;2023-03-07T15:26:02;22.43;;;13.60;;
6947;SDS011;3513;47.664;9.162;2023-03-07T15:28:36;27.67;;;13.37;;
6947;SDS011;3513;47.664;9.162;2023-03-07T15:31:04;30.20;;;15.13;;
6947;SDS011;3513;47.664;9.162;2023-03-07T15:33:31;29.20;;;12.10;;
6947;SDS011;3513;47.664;9.162;2023-03-07T15:39:11;26.40;;;13.50;;
6947;SDS011;3513;47.664;9.162;2023-03-07T15:42:07;26.50;;;12.73;;
6947;SDS011;3513;47.664;9.162;2023-03-07T15:44:51;28.40;;;11.67;;
6947;SDS011;3513;47.664;9.162;2023-03-07T15:47:24;24.80;;;12.70;;
6947;SDS011;3513;47.664;9.162;2023-03-07T15:49:52;31.63;;;13.83;;
6947;SDS011;3513;47.664;9.162;2023-03-07T15:52:33;21.13;;;12.03;;
6947;SDS011;3513;47.664;9.162;2023-03-07T15:55:03;22.17;;;11.37;;
6947;SDS011;3513;47.664;9.162;2023-03-07T16:02:50;33.83;;;12.43;;
6947;SDS011;3513;47.664;9.162;2023-03-07T16:07:51;22.10;;;11.83;;
6947;SDS011;3513;47.664;9.162;2023-03-07T16:10:19;23.00;;;12.97;;
6947;SDS011;3513;47.664;9.162;2023-03-07T16:12:46;21.70;;;12.37;;
6947;SDS011;3513;47.664;9.162;2023-03-07T16:15:16;22.50;;;12.60;;
6947;SDS011;3513;47.664;9.162;2023-03-07T16:17:45;34.70;;;13.17;;
6947;SDS011;3513;47.664;9.162;2023-03-07T16:20:19;31.37;;;14.70;;
6947;SDS011;3513;47.664;9.162;2023-03-07T16:22:53;28.53;;;14.00;;
6947;SDS011;3513;47.664;9.162;2023-03-07T16:25:19;30.07;;;14.90;;
6947;SDS011;3513;47.664;9.162;2023-03-07T16:27:48;28.83;;;13.03;;
6947;SDS011;3513;47.664;9.162;2023-03-07T16:30:18;29.27;;;13.70;;
6947;SDS011;3513;47.664;9.162;2023-03-07T16:32:46;31.30;;;13.93;;
6947;SDS011;3513;47.664;9.162;2023-03-07T16:35:13;23.53;;;12.93;;
6947;SDS011;3513;47.664;9.162;2023-03-07T16:37:40;22.87;;;12.83;;
6947;SDS011;3513;47.664;9.162;2023-03-07T16:40:23;22.33;;;12.70;;
6947;SDS011;3513;47.664;9.162;2023-03-07T16:42:50;21.50;;;11.90;;
6947;SDS011;3513;47.664;9.162;2023-03-07T16:47:50;27.30;;;13.33;;
6947;SDS011;3513;47.664;9.162;2023-03-07T16:50:18;37.27;;;14.13;;
6947;SDS011;3513;47.664;9.162;2023-03-07T16:52:49;25.53;;;14.20;;
6947;SDS011;3513;47.664;9.162;2023-03-07T16:55:15;26.03;;;14.10;;
6947;SDS011;3513;47.664;9.162;2023-03-07T16:57:45;23.20;;;12.63;;
6947;SDS011;3513;47.664;9.162;2023-03-07T17:00:14;21.90;;;12.97;;
6947;SDS011;3513;47.664;9.162;2023-03-07T17:02:43;26.50;;;13.23;;
6947;SDS011;3513;47.664;9.162;2023-03-07T17:05:30;27.67;;;14.20;;
6947;SDS011;3513;47.664;9.162;2023-03-07T17:07:55;30.93;;;14.03;;
6947;SDS011;3513;47.664;9.162;2023-03-07T17:10:23;30.20;;;13.03;;
6947;SDS011;3513;47.664;9.162;2023-03-07T17:12:50;26.47;;;13.90;;
6947;SDS011;3513;47.664;9.162;2023-03-07T17:15:18;23.37;;;12.17;;
6947;SDS011;3513;47.664;9.162;2023-03-07T17:17:46;22.43;;;13.43;;